Time;durP1;ratioP1;P1;durP2;ratioP2;P2;SDS_P1;SDS_P2;PMS_P1;PMS_P2;Temp;Humidity;BMP_temperature;BMP_pressure;BME280_temperature;BME280_humidity;BME280_pressure;Samples;Min_cycle;Max_cycle;Signal;HPM_P1;HPM_P2
2022/03/23 00:01:24;;;;;;;18.73;13.13;;;;;;;;;;5053989;28;20480;-76
2022/03/23 00:03:51;;;;;;;21.27;13.85;;;;;;;;;;5054127;28;20296;-76
2022/03/23 00:06:17;;;;;;;18.92;13.73;;;;;;;;;;5054423;28;20052;-76
2022/03/23 00:08:44;;;;;;;18.92;13.68;;;;;;;;;;5054251;28;20064;-76
2022/03/23 00:11:11;;;;;;;18.83;13.90;;;;;;;;;;5054104;28;20044;-76
2022/03/23 00:13:37;;;;;;;18.13;14.13;;;;;;;;;;5054033;28;20049;-77
2022/03/23 00:16:04;;;;;;;19.65;13.57;;;;;;;;;;5053732;28;20452;-76
2022/03/23 00:18:31;;;;;;;19.93;14.03;;;;;;;;;;5053815;28;20076;-76
2022/03/23 00:20:58;;;;;;;19.70;13.88;;;;;;;;;;5053701;28;20286;-76
2022/03/23 00:23:25;;;;;;;19.50;13.33;;;;;;;;;;5053601;28;20049;-76
2022/03/23 00:25:51;;;;;;;16.42;13.00;;;;;;;;;;5053611;28;20053;-76
2022/03/23 00:28:21;;;;;;;18.50;13.77;;;;;;;;;;5052191;28;20057;-76
2022/03/23 00:30:49;;;;;;;17.27;13.50;;;;;;;;;;5053580;28;20065;-76
2022/03/23 00:33:26;;;;;;;20.13;13.70;;;;;;;;;;5052318;28;20045;-76
2022/03/23 00:35:53;;;;;;;17.60;12.93;;;;;;;;;;5053422;28;20041;-76
2022/03/23 00:38:20;;;;;;;18.15;13.00;;;;;;;;;;5053304;28;20053;-76
2022/03/23 00:40:47;;;;;;;17.10;13.90;;;;;;;;;;5053651;28;20049;-76
2022/03/23 00:43:13;;;;;;;18.92;13.73;;;;;;;;;;5046686;28;20053;-76
2022/03/23 00:45:40;;;;;;;22.52;14.02;;;;;;;;;;5053451;28;20413;-76
2022/03/23 00:48:06;;;;;;;18.08;13.52;;;;;;;;;;5053466;28;20463;-76
2022/03/23 00:50:36;;;;;;;17.27;13.50;;;;;;;;;;5053416;28;20455;-76
2022/03/23 00:53:02;;;;;;;18.70;13.57;;;;;;;;;;5052897;28;20554;-76
2022/03/23 00:55:29;;;;;;;19.95;13.35;;;;;;;;;;5052384;28;20409;-77
2022/03/23 00:57:55;;;;;;;17.85;13.45;;;;;;;;;;5053307;28;20095;-76
2022/03/23 01:00:22;;;;;;;19.23;13.75;;;;;;;;;;5053028;28;20045;-76
2022/03/23 01:02:49;;;;;;;18.77;14.02;;;;;;;;;;5051632;28;20053;-76
2022/03/23 01:05:16;;;;;;;16.58;13.93;;;;;;;;;;5051874;28;20055;-76
2022/03/23 01:07:43;;;;;;;21.40;15.48;;;;;;;;;;5051875;28;20053;-76
2022/03/23 01:10:11;;;;;;;18.42;14.25;;;;;;;;;;5053093;28;20041;-77
2022/03/23 01:12:42;;;;;;;17.58;13.75;;;;;;;;;;5051435;28;20064;-76
2022/03/23 01:15:09;;;;;;;22.95;14.57;;;;;;;;;;5052982;28;20087;-76
2022/03/23 01:17:36;;;;;;;19.95;13.40;;;;;;;;;;5052670;28;20052;-76
2022/03/23 01:20:04;;;;;;;18.25;14.15;;;;;;;;;;5052499;28;20052;-76
2022/03/23 01:22:30;;;;;;;21.25;13.95;;;;;;;;;;5052547;28;20072;-77
2022/03/23 01:24:57;;;;;;;20.23;14.40;;;;;;;;;;5051479;28;20095;-76
2022/03/23 01:27:23;;;;;;;21.02;14.27;;;;;;;;;;5051332;28;20443;-76
2022/03/23 01:29:50;;;;;;;19.00;14.00;;;;;;;;;;5051023;28;20496;-76
2022/03/23 01:32:16;;;;;;;19.35;14.65;;;;;;;;;;5052195;28;20416;-76
2022/03/23 01:34:43;;;;;;;19.40;14.10;;;;;;;;;;5051371;28;20048;-76
2022/03/23 01:37:09;;;;;;;17.88;13.90;;;;;;;;;;5052530;28;20090;-77
2022/03/23 01:39:36;;;;;;;18.95;13.88;;;;;;;;;;5051173;28;20469;-76
2022/03/23 01:42:02;;;;;;;19.23;14.63;;;;;;;;;;5051607;28;20041;-77
2022/03/23 01:44:29;;;;;;;19.35;14.27;;;;;;;;;;5052069;28;20565;-76
2022/03/23 01:47:01;;;;;;;17.60;13.98;;;;;;;;;;5052017;28;20106;-76
2022/03/23 01:49:28;;;;;;;17.27;13.52;;;;;;;;;;5052250;28;20048;-76
2022/03/23 01:51:54;;;;;;;20.73;14.65;;;;;;;;;;5050942;28;20099;-77
2022/03/23 01:54:21;;;;;;;18.65;14.60;;;;;;;;;;5051969;28;20408;-77
2022/03/23 01:56:48;;;;;;;20.27;15.40;;;;;;;;;;5050697;28;20563;-76
2022/03/23 01:59:16;;;;;;;16.48;14.27;;;;;;;;;;5051781;28;20094;-76
2022/03/23 02:01:43;;;;;;;17.80;14.05;;;;;;;;;;5052059;28;20049;-77
2022/03/23 02:04:10;;;;;;;18.58;14.20;;;;;;;;;;5050929;28;20454;-77
2022/03/23 02:06:37;;;;;;;17.23;14.25;;;;;;;;;;5050520;28;20084;-77
2022/03/23 02:09:03;;;;;;;21.13;14.07;;;;;;;;;;5050802;28;20110;-77
2022/03/23 02:11:32;;;;;;;19.05;14.48;;;;;;;;;;5051599;28;20049;-77
2022/03/23 02:14:01;;;;;;;18.75;14.77;;;;;;;;;;5050548;28;20052;-77
2022/03/23 02:16:28;;;;;;;18.63;14.90;;;;;;;;;;5045870;28;20444;-78
2022/03/23 02:18:54;;;;;;;19.13;14.98;;;;;;;;;;5051561;28;20128;-77
2022/03/23 02:21:21;;;;;;;20.02;14.63;;;;;;;;;;5051690;28;20045;-77
2022/03/23 02:23:48;;;;;;;18.93;15.20;;;;;;;;;;5051509;28;20060;-77
2022/03/23 02:26:14;;;;;;;19.02;14.75;;;;;;;;;;5051836;28;20099;-77
2022/03/23 02:28:41;;;;;;;21.00;15.00;;;;;;;;;;5051425;28;20489;-76
2022/03/23 02:31:07;;;;;;;19.98;14.52;;;;;;;;;;5051505;28;20061;-76
2022/03/23 02:33:34;;;;;;;19.85;15.50;;;;;;;;;;5050343;28;20098;-77
2022/03/23 02:36:01;;;;;;;20.58;15.40;;;;;;;;;;5050267;28;20409;-76
2022/03/23 02:38:29;;;;;;;20.38;13.90;;;;;;;;;;5051625;28;20074;-76
2022/03/23 02:40:56;;;;;;;19.55;14.10;;;;;;;;;;5051336;28;20059;-76
2022/03/23 02:43:22;;;;;;;18.08;13.65;;;;;;;;;;5051341;28;20052;-76
2022/03/23 02:45:49;;;;;;;17.90;14.55;;;;;;;;;;5051596;28;20095;-76
2022/03/23 02:48:16;;;;;;;20.87;14.17;;;;;;;;;;5051618;28;20084;-76
2022/03/23 02:50:43;;;;;;;18.17;13.48;;;;;;;;;;5051587;28;20941;-77
2022/03/23 03:01:53;;;;;;;21.58;14.70;;;;;;;;;;5055167;28;20044;-77
2022/03/23 03:04:20;;;;;;;18.08;14.18;;;;;;;;;;5054140;28;20048;-76
2022/03/23 03:06:48;;;;;;;18.98;14.40;;;;;;;;;;5055263;28;20122;-77
2022/03/23 03:09:15;;;;;;;18.25;13.30;;;;;;;;;;5055018;28;20106;-77
2022/03/23 03:11:45;;;;;;;22.25;14.38;;;;;;;;;;5053822;28;20049;-77
2022/03/23 03:14:11;;;;;;;17.35;14.52;;;;;;;;;;5054863;28;20053;-77
2022/03/23 03:16:38;;;;;;;18.13;13.57;;;;;;;;;;5055195;28;20085;-77
2022/03/23 03:19:05;;;;;;;24.25;14.27;;;;;;;;;;5055203;28;20052;-77
2022/03/23 03:21:35;;;;;;;17.75;13.50;;;;;;;;;;5053621;28;20045;-77
2022/03/23 03:24:01;;;;;;;19.35;13.38;;;;;;;;;;5054771;28;20098;-78
2022/03/23 03:26:31;;;;;;;17.23;12.95;;;;;;;;;;5054676;28;20102;-76
2022/03/23 03:28:58;;;;;;;17.90;13.43;;;;;;;;;;5054776;28;20555;-77
2022/03/23 03:31:25;;;;;;;17.92;13.35;;;;;;;;;;5054409;28;20057;-76
2022/03/23 03:33:51;;;;;;;19.27;13.48;;;;;;;;;;5054937;28;20102;-76
2022/03/23 03:36:18;;;;;;;18.73;13.68;;;;;;;;;;5054876;28;20122;-77
2022/03/23 03:38:44;;;;;;;17.50;13.93;;;;;;;;;;5054504;28;20045;-76
2022/03/23 03:41:11;;;;;;;17.88;14.27;;;;;;;;;;5054389;28;20052;-76
2022/03/23 03:43:38;;;;;;;18.70;14.15;;;;;;;;;;5054658;28;20485;-76
2022/03/23 03:46:08;;;;;;;20.23;14.65;;;;;;;;;;5054786;28;20133;-76
2022/03/23 03:48:34;;;;;;;20.50;14.93;;;;;;;;;;5054882;28;20052;-76
2022/03/23 03:51:01;;;;;;;17.55;14.00;;;;;;;;;;5054250;28;20057;-77
2022/03/23 03:53:27;;;;;;;19.17;14.30;;;;;;;;;;5054135;28;20079;-78
2022/03/23 03:56:05;;;;;;;16.88;13.40;;;;;;;;;;5054628;28;20464;-77
2022/03/23 03:58:31;;;;;;;20.55;14.20;;;;;;;;;;5054428;28;20500;-77
2022/03/23 04:00:58;;;;;;;17.85;14.13;;;;;;;;;;5053009;28;20044;-77
2022/03/23 04:03:24;;;;;;;20.73;14.45;;;;;;;;;;5054052;28;20056;-77
2022/03/23 04:05:51;;;;;;;19.45;14.10;;;;;;;;;;5052650;28;20057;-77
2022/03/23 04:08:18;;;;;;;18.13;14.73;;;;;;;;;;5053897;28;20385;-77
2022/03/23 04:10:44;;;;;;;16.40;13.80;;;;;;;;;;5054192;28;20053;-77
2022/03/23 04:13:11;;;;;;;17.10;12.57;;;;;;;;;;5052705;28;20095;-77
2022/03/23 04:15:37;;;;;;;16.77;13.00;;;;;;;;;;5053934;28;20102;-77
2022/03/23 04:18:05;;;;;;;16.95;13.40;;;;;;;;;;5054061;28;20048;-77
2022/03/23 04:20:31;;;;;;;19.42;13.35;;;;;;;;;;5053885;28;20103;-77
2022/03/23 04:22:58;;;;;;;17.20;13.30;;;;;;;;;;5053746;28;20115;-77
2022/03/23 04:25:24;;;;;;;17.42;14.02;;;;;;;;;;5053682;28;20481;-77
2022/03/23 04:27:52;;;;;;;19.67;14.00;;;;;;;;;;5053920;28;20041;-77
2022/03/23 04:30:19;;;;;;;;;;;;;;;;;;5053742;28;20477;-77
2022/03/23 04:32:46;;;;;;;18.15;12.65;;;;;;;;;;5053913;28;19924;-77
2022/03/23 04:35:13;;;;;;;19.23;13.90;;;;;;;;;;5053387;28;20037;-77
2022/03/23 04:37:40;;;;;;;23.38;15.63;;;;;;;;;;5053754;28;20045;-77
2022/03/23 04:40:07;;;;;;;22.05;15.98;;;;;;;;;;5053637;28;20049;-77
2022/03/23 04:42:34;;;;;;;21.40;14.20;;;;;;;;;;5053631;28;20107;-77
2022/03/23 04:45:01;;;;;;;17.63;13.40;;;;;;;;;;5053318;28;20049;-77
2022/03/23 04:47:27;;;;;;;20.48;14.85;;;;;;;;;;5053257;28;20049;-77
2022/03/23 04:49:54;;;;;;;16.95;14.32;;;;;;;;;;5053185;28;20056;-77
2022/03/23 04:52:20;;;;;;;18.00;13.65;;;;;;;;;;5052050;28;20053;-77
2022/03/23 04:54:47;;;;;;;17.42;14.20;;;;;;;;;;5053303;28;20045;-77
2022/03/23 04:57:18;;;;;;;20.23;14.38;;;;;;;;;;5053320;28;20056;-77
2022/03/23 04:59:45;;;;;;;;;;;;;;;;;;5052480;28;20045;-77
2022/03/23 05:02:11;;;;;;;19.75;13.77;;;;;;;;;;5053160;28;19920;-77
2022/03/23 05:04:38;;;;;;;21.15;14.18;;;;;;;;;;5052933;28;20049;-77
2022/03/23 05:07:04;;;;;;;17.60;13.60;;;;;;;;;;5052838;28;20103;-78
2022/03/23 05:09:30;;;;;;;17.15;13.32;;;;;;;;;;5052848;28;20057;-77
2022/03/23 05:11:57;;;;;;;18.40;14.43;;;;;;;;;;5053052;28;20056;-76
2022/03/23 05:14:23;;;;;;;18.25;14.02;;;;;;;;;;5052656;28;20091;-76
2022/03/23 05:16:50;;;;;;;18.00;13.05;;;;;;;;;;5050593;28;20091;-76
2022/03/23 05:19:16;;;;;;;19.15;13.95;;;;;;;;;;5051194;28;20130;-76
2022/03/23 05:21:43;;;;;;;18.70;14.18;;;;;;;;;;5052895;28;20057;-76
2022/03/23 05:24:09;;;;;;;17.98;13.52;;;;;;;;;;5052470;28;20056;-76
2022/03/23 05:26:36;;;;;;;19.33;13.52;;;;;;;;;;5052692;28;20087;-76
2022/03/23 05:29:03;;;;;;;16.40;13.60;;;;;;;;;;5051138;28;20075;-76
2022/03/23 05:31:29;;;;;;;17.10;12.95;;;;;;;;;;5050876;28;20083;-76
2022/03/23 05:33:56;;;;;;;20.05;14.40;;;;;;;;;;5051362;28;20405;-76
2022/03/23 05:36:22;;;;;;;18.08;13.68;;;;;;;;;;5052589;28;20045;-76
2022/03/23 05:38:49;;;;;;;21.48;14.23;;;;;;;;;;5051304;28;20117;-76
2022/03/23 05:41:15;;;;;;;18.95;13.95;;;;;;;;;;5052491;28;20060;-75
2022/03/23 05:43:42;;;;;;;19.75;14.73;;;;;;;;;;5052459;28;20455;-76
2022/03/23 05:46:08;;;;;;;17.17;13.68;;;;;;;;;;5051137;28;20052;-76
2022/03/23 05:48:35;;;;;;;20.73;14.63;;;;;;;;;;5052053;28;20492;-76
2022/03/23 05:51:02;;;;;;;18.33;13.85;;;;;;;;;;5052039;28;20057;-76
2022/03/23 05:53:28;;;;;;;19.88;15.65;;;;;;;;;;5051822;28;20052;-76
2022/03/23 05:55:55;;;;;;;21.25;15.35;;;;;;;;;;5052332;28;20119;-76
2022/03/23 05:58:22;;;;;;;23.80;16.38;;;;;;;;;;5050751;28;20053;-76
2022/03/23 06:00:49;;;;;;;27.70;16.08;;;;;;;;;;5051897;28;20098;-76
2022/03/23 06:03:16;;;;;;;19.73;14.90;;;;;;;;;;5052112;28;20044;-76
2022/03/23 06:05:42;;;;;;;19.40;15.45;;;;;;;;;;5052059;28;20041;-76
2022/03/23 06:08:09;;;;;;;21.63;15.48;;;;;;;;;;5052133;28;20076;-76
2022/03/23 06:10:35;;;;;;;20.80;15.30;;;;;;;;;;5051776;28;20057;-77
2022/03/23 06:13:02;;;;;;;21.95;15.40;;;;;;;;;;5052034;28;20052;-77
2022/03/23 06:15:28;;;;;;;23.67;15.77;;;;;;;;;;5051548;28;20065;-77
2022/03/23 06:17:54;;;;;;;23.08;15.73;;;;;;;;;;5051855;28;20049;-77
2022/03/23 06:20:27;;;;;;;21.85;15.65;;;;;;;;;;5052106;28;20128;-77
2022/03/23 06:22:53;;;;;;;21.55;15.77;;;;;;;;;;5051498;28;20051;-77
2022/03/23 06:25:20;;;;;;;21.50;14.85;;;;;;;;;;5050606;28;20045;-77
2022/03/23 06:27:46;;;;;;;20.58;15.68;;;;;;;;;;5051383;28;20052;-77
2022/03/23 06:30:13;;;;;;;21.15;14.90;;;;;;;;;;5051648;28;20049;-77
2022/03/23 06:32:40;;;;;;;22.52;15.93;;;;;;;;;;5051493;28;20058;-77
2022/03/23 06:35:06;;;;;;;20.83;15.07;;;;;;;;;;5051524;28;20049;-78
2022/03/23 06:37:33;;;;;;;23.33;15.93;;;;;;;;;;5051501;28;20049;-78
2022/03/23 06:39:59;;;;;;;23.85;16.42;;;;;;;;;;5051740;28;20447;-78
2022/03/23 06:42:27;;;;;;;21.98;14.93;;;;;;;;;;5051643;28;20091;-77
2022/03/23 06:44:54;;;;;;;20.13;14.88;;;;;;;;;;5051748;28;20061;-77
2022/03/23 06:47:21;;;;;;;19.23;14.23;;;;;;;;;;5023868;28;20470;-77
2022/03/23 06:49:47;;;;;;;18.52;14.68;;;;;;;;;;5051373;28;20557;-77
2022/03/23 06:52:15;;;;;;;19.23;14.45;;;;;;;;;;5050849;28;20100;-77
2022/03/23 06:54:41;;;;;;;21.80;14.80;;;;;;;;;;5049895;28;20049;-76
2022/03/23 06:57:07;;;;;;;20.33;14.82;;;;;;;;;;5051157;28;20053;-76
2022/03/23 06:59:34;;;;;;;19.35;14.27;;;;;;;;;;5051478;28;20106;-76
2022/03/23 07:02:00;;;;;;;21.40;15.40;;;;;;;;;;5051400;28;20049;-77
2022/03/23 07:04:27;;;;;;;21.55;14.82;;;;;;;;;;5051224;28;20378;-77
2022/03/23 07:06:53;;;;;;;18.98;15.23;;;;;;;;;;5051520;28;20049;-76
2022/03/23 07:09:32;;;;;;;21.00;14.88;;;;;;;;;;5051367;28;20439;-76
2022/03/23 07:11:59;;;;;;;23.50;15.68;;;;;;;;;;5049923;28;20504;-77
2022/03/23 07:14:29;;;;;;;22.58;15.45;;;;;;;;;;5033474;28;20041;-78
2022/03/23 07:16:56;;;;;;;19.70;15.07;;;;;;;;;;5029208;28;20068;-78
2022/03/23 07:19:22;;;;;;;19.58;14.23;;;;;;;;;;5030222;28;20563;-76
2022/03/23 07:21:49;;;;;;;22.15;15.18;;;;;;;;;;5034608;28;20044;-76
2022/03/23 07:24:16;;;;;;;21.42;15.70;;;;;;;;;;5042357;28;20052;-77
2022/03/23 07:26:42;;;;;;;21.77;16.17;;;;;;;;;;5048429;28;20045;-77
2022/03/23 07:29:29;;;;;;;20.23;15.35;;;;;;;;;;5050450;28;20149;-77
2022/03/23 07:31:55;;;;;;;21.92;15.25;;;;;;;;;;5042315;28;20053;-77
2022/03/23 07:34:22;;;;;;;19.42;15.30;;;;;;;;;;5036966;28;20045;-78
2022/03/23 07:36:48;;;;;;;20.25;15.45;;;;;;;;;;5040373;28;20105;-77
2022/03/23 07:39:20;;;;;;;22.25;16.42;;;;;;;;;;5041622;28;20045;-76
2022/03/23 07:41:50;;;;;;;24.60;16.45;;;;;;;;;;5054596;28;20380;-84
2022/03/23 07:44:18;;;;;;;23.42;17.05;;;;;;;;;;5055033;28;20049;-77
2022/03/23 07:46:45;;;;;;;21.88;17.27;;;;;;;;;;5038903;28;20556;-76
2022/03/23 07:49:12;;;;;;;23.80;17.67;;;;;;;;;;5047049;28;20083;-74
2022/03/23 07:51:39;;;;;;;24.87;18.60;;;;;;;;;;5053840;28;20126;-74
2022/03/23 07:54:06;;;;;;;22.25;17.25;;;;;;;;;;5053093;28;20125;-73
2022/03/23 07:56:33;;;;;;;24.03;18.67;;;;;;;;;;5053120;28;20041;-74
2022/03/23 07:58:59;;;;;;;25.50;19.40;;;;;;;;;;5053909;28;20079;-73
2022/03/23 08:01:26;;;;;;;21.45;17.58;;;;;;;;;;5053841;28;20049;-73
2022/03/23 08:03:52;;;;;;;22.85;18.08;;;;;;;;;;5054231;28;20504;-73
2022/03/23 08:06:22;;;;;;;24.85;19.00;;;;;;;;;;5053741;28;20087;-73
2022/03/23 08:08:49;;;;;;;20.55;17.42;;;;;;;;;;5054113;28;20057;-74
2022/03/23 08:11:16;;;;;;;25.48;18.40;;;;;;;;;;5053869;28;20053;-74
2022/03/23 08:13:42;;;;;;;24.27;17.85;;;;;;;;;;5053979;28;20488;-74
2022/03/23 08:16:09;;;;;;;25.00;18.35;;;;;;;;;;5053761;28;20045;-74
2022/03/23 08:18:37;;;;;;;22.48;18.30;;;;;;;;;;5054030;28;20484;-75
2022/03/23 08:21:03;;;;;;;19.33;17.33;;;;;;;;;;5054039;28;20105;-74
2022/03/23 08:23:30;;;;;;;22.85;18.60;;;;;;;;;;5053652;28;20049;-74
2022/03/23 08:25:56;;;;;;;21.25;17.60;;;;;;;;;;5053806;28;20053;-74
2022/03/23 08:28:23;;;;;;;23.38;19.45;;;;;;;;;;5052652;28;20110;-74
2022/03/23 08:30:50;;;;;;;25.08;20.30;;;;;;;;;;5053384;28;20145;-74
2022/03/23 08:33:17;;;;;;;26.85;21.30;;;;;;;;;;5053823;28;20058;-74
2022/03/23 08:35:43;;;;;;;22.15;18.85;;;;;;;;;;5053646;28;20059;-74
2022/03/23 08:38:10;;;;;;;21.73;18.73;;;;;;;;;;5053486;28;20561;-74
2022/03/23 08:40:36;;;;;;;21.58;18.48;;;;;;;;;;5053450;28;20052;-74
2022/03/23 08:43:03;;;;;;;20.67;18.05;;;;;;;;;;5053375;28;20056;-74
2022/03/23 08:45:30;;;;;;;22.83;19.17;;;;;;;;;;5053305;28;20060;-74
2022/03/23 08:47:56;;;;;;;22.20;18.15;;;;;;;;;;5053300;28;20527;-74
2022/03/23 08:50:23;;;;;;;21.08;18.52;;;;;;;;;;5053396;28;20049;-74
2022/03/23 08:52:49;;;;;;;22.20;18.80;;;;;;;;;;5053311;28;20108;-74
2022/03/23 08:55:19;;;;;;;23.60;18.70;;;;;;;;;;5052992;28;20481;-74
2022/03/23 08:57:46;;;;;;;21.00;18.25;;;;;;;;;;5053398;28;20044;-74
2022/03/23 09:00:13;;;;;;;20.08;17.92;;;;;;;;;;5053058;28;20099;-74
2022/03/23 09:02:40;;;;;;;23.33;18.98;;;;;;;;;;5053260;28;20420;-74
2022/03/23 09:05:11;;;;;;;20.67;18.50;;;;;;;;;;5052929;28;20512;-74
2022/03/23 09:07:38;;;;;;;20.75;18.58;;;;;;;;;;5052997;28;20282;-74
2022/03/23 09:10:07;;;;;;;19.90;17.65;;;;;;;;;;5053159;28;20083;-74
2022/03/23 09:12:34;;;;;;;19.90;17.65;;;;;;;;;;5052704;28;20481;-74
2022/03/23 09:15:00;;;;;;;20.05;17.92;;;;;;;;;;5052971;28;20053;-74
2022/03/23 09:17:27;;;;;;;20.40;18.00;;;;;;;;;;5052902;28;20049;-74
2022/03/23 09:19:55;;;;;;;18.40;16.57;;;;;;;;;;5053020;28;20661;-76
2022/03/23 09:22:22;;;;;;;21.27;17.23;;;;;;;;;;5052813;28;20045;-76
2022/03/23 09:24:48;;;;;;;18.27;16.52;;;;;;;;;;5052780;28;20095;-76
2022/03/23 09:27:15;;;;;;;18.50;16.58;;;;;;;;;;5052516;28;20580;-76
2022/03/23 09:29:41;;;;;;;22.35;16.85;;;;;;;;;;5052385;28;20504;-76
2022/03/23 09:32:10;;;;;;;19.65;17.65;;;;;;;;;;5052350;28;20119;-76
2022/03/23 09:34:36;;;;;;;19.58;17.48;;;;;;;;;;5052346;28;20093;-76
2022/03/23 09:39:48;;;;;;;17.98;16.13;;;;;;;;;;5052300;28;20045;-76
2022/03/23 09:42:18;;;;;;;18.85;15.98;;;;;;;;;;5034830;28;20382;-76
2022/03/23 09:44:46;;;;;;;17.65;15.93;;;;;;;;;;5052524;28;20099;-76
2022/03/23 09:47:12;;;;;;;17.23;15.52;;;;;;;;;;5052379;28;20045;-76
2022/03/23 09:49:39;;;;;;;17.98;16.15;;;;;;;;;;5052456;28;20444;-75
2022/03/23 09:52:05;;;;;;;18.77;16.92;;;;;;;;;;5051909;28;20107;-75
2022/03/23 09:54:32;;;;;;;17.17;15.45;;;;;;;;;;5052176;28;20052;-76
2022/03/23 09:56:58;;;;;;;17.15;15.52;;;;;;;;;;5052228;28;20098;-75
2022/03/23 09:59:25;;;;;;;18.48;16.75;;;;;;;;;;5052256;28;20041;-76
2022/03/23 10:02:17;;;;;;;19.27;17.38;;;;;;;;;;5051838;28;20093;-76
2022/03/23 10:04:50;;;;;;;18.67;16.77;;;;;;;;;;5051739;28;20057;-75
2022/03/23 10:07:23;;;;;;;18.02;16.10;;;;;;;;;;5051736;28;20053;-75
2022/03/23 10:10:01;;;;;;;18.13;16.42;;;;;;;;;;5052190;28;20409;-75
2022/03/23 10:12:30;;;;;;;18.02;16.30;;;;;;;;;;5051718;28;20170;-76
2022/03/23 10:15:09;;;;;;;17.45;15.77;;;;;;;;;;5051638;28;20489;-76
2022/03/23 10:17:35;;;;;;;18.95;16.00;;;;;;;;;;5050391;28;20465;-75
2022/03/23 10:20:02;;;;;;;18.13;16.42;;;;;;;;;;5050627;28;20110;-76
2022/03/23 10:22:29;;;;;;;17.88;15.95;;;;;;;;;;5051576;28;20067;-76
2022/03/23 10:25:05;;;;;;;18.83;16.10;;;;;;;;;;5051683;28;20041;-75
2022/03/23 10:27:32;;;;;;;16.08;14.48;;;;;;;;;;5051870;28;20060;-75
2022/03/23 10:29:58;;;;;;;16.17;14.55;;;;;;;;;;5051697;28;20170;-75
2022/03/23 10:32:33;;;;;;;16.55;14.90;;;;;;;;;;5051426;28;20505;-75
2022/03/23 10:34:59;;;;;;;16.95;15.13;;;;;;;;;;5051765;28;20045;-75
2022/03/23 10:37:27;;;;;;;17.27;15.48;;;;;;;;;;5051515;28;20041;-75
2022/03/23 10:39:56;;;;;;;18.65;16.63;;;;;;;;;;5051369;28;20563;-75
2022/03/23 10:42:24;;;;;;;17.35;15.55;;;;;;;;;;5050153;28;20485;-75
2022/03/23 10:45:02;;;;;;;17.00;15.30;;;;;;;;;;5051410;28;20057;-75
2022/03/23 10:47:33;;;;;;;17.65;15.98;;;;;;;;;;5051572;28;20049;-75
2022/03/23 10:50:29;;;;;;;16.98;15.25;;;;;;;;;;5050262;28;20095;-75
2022/03/23 10:52:55;;;;;;;;;;;;;;;;;;5051115;28;20095;-75
2022/03/23 10:55:22;;;;;;;;;;;;;;;;;;5051743;28;19921;-75
2022/03/23 10:57:51;;;;;;;16.33;14.80;;;;;;;;;;5051367;28;20347;-76
2022/03/23 11:00:29;;;;;;;17.23;15.55;;;;;;;;;;5051221;28;20053;-76
2022/03/23 11:02:56;;;;;;;17.90;16.20;;;;;;;;;;5050263;28;20150;-76
2022/03/23 11:05:31;;;;;;;18.27;16.40;;;;;;;;;;5051093;28;20049;-76
2022/03/23 11:08:06;;;;;;;17.83;16.13;;;;;;;;;;5050265;28;20046;-76
2022/03/23 11:16:06;;;;;;;18.55;16.75;;;;;;;;;;5054919;28;20099;-76
2022/03/23 11:18:33;;;;;;;;;;;;;;;;;;5055388;28;20559;-76
2022/03/23 11:21:00;;;;;;;17.67;15.95;;;;;;;;;;5054849;28;20057;-76
2022/03/23 11:23:28;;;;;;;18.02;16.25;;;;;;;;;;5055138;28;20056;-76
2022/03/23 11:25:56;;;;;;;17.63;15.73;;;;;;;;;;5055128;28;20075;-76
2022/03/23 11:28:26;;;;;;;16.80;15.10;;;;;;;;;;5054765;28;20144;-76
2022/03/23 11:30:53;;;;;;;16.77;15.23;;;;;;;;;;5053512;28;20061;-76
2022/03/23 11:33:22;;;;;;;15.93;14.45;;;;;;;;;;5054669;28;20056;-75
2022/03/23 11:35:50;;;;;;;16.40;14.88;;;;;;;;;;5053350;28;20099;-76
2022/03/23 11:38:18;;;;;;;15.52;14.20;;;;;;;;;;5054501;28;20490;-76
2022/03/23 11:40:45;;;;;;;14.90;13.50;;;;;;;;;;5054760;28;20053;-76
2022/03/23 11:43:12;;;;;;;13.90;12.18;;;;;;;;;;5054627;28;20052;-76
2022/03/23 11:45:59;;;;;;;13.52;12.25;;;;;;;;;;5054442;28;20084;-76
2022/03/23 11:48:44;;;;;;;13.48;12.07;;;;;;;;;;5054420;28;20594;-76
2022/03/23 11:51:19;;;;;;;14.68;13.13;;;;;;;;;;5054619;28;20049;-76
2022/03/23 11:53:50;;;;;;;14.13;12.82;;;;;;;;;;5054232;28;20055;-76
2022/03/23 11:56:35;;;;;;;14.15;12.80;;;;;;;;;;5054248;28;20063;-76
2022/03/23 11:59:17;;;;;;;14.15;12.75;;;;;;;;;;5054478;28;20052;-75
2022/03/23 12:01:43;;;;;;;14.52;13.15;;;;;;;;;;5054192;28;20071;-76
2022/03/23 12:04:12;;;;;;;13.98;12.77;;;;;;;;;;5054356;28;20044;-76
2022/03/23 12:06:40;;;;;;;13.60;12.10;;;;;;;;;;5054362;28;20052;-76
2022/03/23 12:09:06;;;;;;;14.45;13.10;;;;;;;;;;5053937;28;20056;-76
2022/03/23 12:11:34;;;;;;;13.93;12.60;;;;;;;;;;5054041;28;20099;-76
2022/03/23 12:14:02;;;;;;;12.93;11.68;;;;;;;;;;5054107;28;20052;-76
2022/03/23 12:16:47;;;;;;;12.30;11.15;;;;;;;;;;5054021;28;20040;-74
2022/03/23 12:19:54;;;;;;;12.65;11.55;;;;;;;;;;5053822;28;20080;-74
2022/03/23 12:22:30;;;;;;;11.73;10.52;;;;;;;;;;5053705;28;20053;-74
2022/03/23 12:25:03;;;;;;;10.90;9.75;;;;;;;;;;5052375;28;20083;-74
2022/03/23 12:27:48;;;;;;;11.00;10.00;;;;;;;;;;5053775;28;20049;-74
2022/03/23 12:30:31;;;;;;;7.10;6.38;;;;;;;;;;5053626;28;20130;-74
2022/03/23 12:33:00;;;;;;;5.93;5.43;;;;;;;;;;5053998;28;20087;-74
2022/03/23 12:35:30;;;;;;;7.07;6.38;;;;;;;;;;5052255;28;20538;-74
2022/03/23 12:37:59;;;;;;;6.43;5.70;;;;;;;;;;5052381;28;20053;-74
2022/03/23 12:40:36;;;;;;;6.72;6.10;;;;;;;;;;5053704;28;20041;-74
2022/03/23 12:43:03;;;;;;;6.88;6.28;;;;;;;;;;5053408;28;20453;-74
2022/03/23 12:45:33;;;;;;;6.47;5.88;;;;;;;;;;5053269;28;20489;-74
2022/03/23 12:48:05;;;;;;;5.63;5.00;;;;;;;;;;5053687;28;20111;-74
2022/03/23 12:58:47;;;;;;;5.50;5.00;;;;;;;;;;5053071;28;20103;-74
2022/03/23 13:01:17;;;;;;;5.72;5.15;;;;;;;;;;5053630;28;20041;-74
2022/03/23 13:03:48;;;;;;;5.38;4.75;;;;;;;;;;5052858;28;20098;-74
2022/03/23 13:06:18;;;;;;;5.95;5.45;;;;;;;;;;5052879;28;20076;-74
2022/03/23 13:08:47;;;;;;;6.78;5.68;;;;;;;;;;5053256;28;20559;-74
2022/03/23 13:11:16;;;;;;;5.57;5.07;;;;;;;;;;5051894;28;20045;-74
2022/03/23 13:13:44;;;;;;;6.35;4.90;;;;;;;;;;5053148;28;20049;-74
2022/03/23 13:16:12;;;;;;;5.55;5.05;;;;;;;;;;5052643;28;20045;-74
2022/03/23 13:18:39;;;;;;;6.03;5.53;;;;;;;;;;5053038;28;20048;-74
2022/03/23 13:21:25;;;;;;;5.68;5.18;;;;;;;;;;5052763;28;20436;-74
2022/03/23 13:23:52;;;;;;;6.47;5.93;;;;;;;;;;5052751;28;20057;-74
2022/03/23 13:26:19;;;;;;;6.28;5.68;;;;;;;;;;5052581;28;20057;-74
2022/03/23 13:28:50;;;;;;;6.32;5.72;;;;;;;;;;5052769;28;20122;-74
2022/03/23 13:31:22;;;;;;;7.10;6.43;;;;;;;;;;5052515;28;20452;-74
2022/03/23 13:33:50;;;;;;;7.13;6.50;;;;;;;;;;5052643;28;20053;-74
2022/03/23 13:36:18;;;;;;;6.93;6.22;;;;;;;;;;5051546;28;20090;-74
2022/03/23 13:38:45;;;;;;;7.10;6.40;;;;;;;;;;5052536;28;20122;-74
2022/03/23 13:43:58;;;;;;;7.25;6.50;;;;;;;;;;5052499;28;20044;-75
2022/03/23 13:46:25;;;;;;;7.93;7.13;;;;;;;;;;5052303;28;20393;-74
2022/03/23 13:48:52;;;;;;;7.60;7.00;;;;;;;;;;5052365;28;20143;-74
2022/03/23 13:51:19;;;;;;;8.65;7.60;;;;;;;;;;5052346;28;20049;-76
2022/03/23 13:53:48;;;;;;;8.07;7.32;;;;;;;;;;5051956;28;20567;-76
2022/03/23 13:56:17;;;;;;;8.70;7.57;;;;;;;;;;5051932;28;20095;-76
2022/03/23 13:58:44;;;;;;;8.00;7.20;;;;;;;;;;5051005;28;20045;-76
2022/03/23 14:01:11;;;;;;;7.70;7.05;;;;;;;;;;5052263;28;20040;-76
2022/03/23 14:03:38;;;;;;;8.82;7.85;;;;;;;;;;5052217;28;20432;-76
2022/03/23 14:06:07;;;;;;;9.00;7.70;;;;;;;;;;5052127;28;20129;-76
2022/03/23 14:08:40;;;;;;;9.65;8.75;;;;;;;;;;5052265;28;20133;-76
2022/03/23 14:11:10;;;;;;;9.30;8.35;;;;;;;;;;5051715;28;20480;-76
2022/03/23 14:13:40;;;;;;;10.50;8.23;;;;;;;;;;5052037;28;20056;-76
2022/03/23 14:16:07;;;;;;;8.68;7.65;;;;;;;;;;5037756;28;20098;-76
2022/03/23 14:18:33;;;;;;;9.02;7.97;;;;;;;;;;5051914;28;20044;-76
2022/03/23 14:21:01;;;;;;;10.00;8.70;;;;;;;;;;5051608;28;20459;-76
2022/03/23 14:23:29;;;;;;;9.55;8.75;;;;;;;;;;5051587;28;20118;-76
2022/03/23 14:26:16;;;;;;;9.35;8.50;;;;;;;;;;5051766;28;20049;-76
2022/03/23 14:28:45;;;;;;;10.32;9.18;;;;;;;;;;5051551;28;20057;-76
2022/03/23 14:31:17;;;;;;;10.82;8.85;;;;;;;;;;5051439;28;20057;-76
2022/03/23 14:33:54;;;;;;;11.63;9.35;;;;;;;;;;5051839;28;20049;-76
2022/03/23 14:36:20;;;;;;;;;;;;;;;;;;5050876;28;20076;-76
2022/03/23 14:38:47;;;;;;;9.93;8.55;;;;;;;;;;5051547;28;19975;-76
2022/03/23 14:41:18;;;;;;;9.18;7.93;;;;;;;;;;5051865;28;20448;-76
2022/03/23 14:43:47;;;;;;;8.50;7.60;;;;;;;;;;5051325;28;20037;-76
2022/03/23 14:46:20;;;;;;;7.70;6.97;;;;;;;;;;5051620;28;20052;-76
2022/03/23 14:49:07;;;;;;;9.77;7.22;;;;;;;;;;5054140;28;20503;-76
2022/03/23 14:51:35;;;;;;;9.00;7.22;;;;;;;;;;5055306;28;20095;-76
2022/03/23 14:54:02;;;;;;;8.30;7.50;;;;;;;;;;5055248;28;20052;-76
2022/03/23 14:56:28;;;;;;;7.60;6.63;;;;;;;;;;5055503;28;20106;-76
2022/03/23 14:58:59;;;;;;;7.95;7.15;;;;;;;;;;5055414;28;20049;-76